sensor_id;sensor_type;location;lat;lon;timestamp;pressure;altitude;pressure_sealevel;temperature;humidity
75543;BME280;64129;53.508;10.476;2023-11-19T00:01:08;100585.72;;;4.39;90.20
75543;BME280;64129;53.508;10.476;2023-11-19T00:03:39;100578.97;;;4.52;89.10
75543;BME280;64129;53.508;10.476;2023-11-19T00:06:07;100563.44;;;4.53;89.90
75543;BME280;64129;53.508;10.476;2023-11-19T00:08:37;100549.53;;;4.51;90.54
75543;BME280;64129;53.508;10.476;2023-11-19T00:11:11;100552.81;;;4.40;91.15
75543;BME280;64129;53.508;10.476;2023-11-19T00:13:43;100539.97;;;4.49;90.97
75543;BME280;64129;53.508;10.476;2023-11-19T00:16:19;100537.47;;;4.56;90.55
75543;BME280;64129;53.508;10.476;2023-11-19T00:19:04;100523.34;;;4.39;91.62
75543;BME280;64129;53.508;10.476;2023-11-19T00:21:42;100517.38;;;4.46;90.67
75543;BME280;64129;53.508;10.476;2023-11-19T00:24:15;100519.25;;;4.55;90.81
75543;BME280;64129;53.508;10.476;2023-11-19T00:26:59;100515.88;;;4.60;90.35
75543;BME280;64129;53.508;10.476;2023-11-19T00:29:39;100511.59;;;4.63;89.02
75543;BME280;64129;53.508;10.476;2023-11-19T00:32:12;100507.22;;;4.60;89.90
75543;BME280;64129;53.508;10.476;2023-11-19T00:34:39;100502.88;;;4.60;89.83
75543;BME280;64129;53.508;10.476;2023-11-19T00:37:12;100485.56;;;4.59;90.84
75543;BME280;64129;53.508;10.476;2023-11-19T00:39:43;100480.41;;;4.64;90.65
75543;BME280;64129;53.508;10.476;2023-11-19T00:42:18;100475.28;;;4.67;89.46
75543;BME280;64129;53.508;10.476;2023-11-19T00:44:53;100466.56;;;4.65;89.48
75543;BME280;64129;53.508;10.476;2023-11-19T00:47:23;100469.06;;;4.57;90.38
75543;BME280;64129;53.508;10.476;2023-11-19T00:50:03;100457.91;;;4.65;90.77
75543;BME280;64129;53.508;10.476;2023-11-19T00:52:32;100441.38;;;4.61;90.21
75543;BME280;64129;53.508;10.476;2023-11-19T00:54:59;100436.16;;;4.59;90.96
75543;BME280;64129;53.508;10.476;2023-11-19T00:57:31;100430.03;;;4.56;91.90
75543;BME280;64129;53.508;10.476;2023-11-19T01:00:15;100430.97;;;4.61;90.59
75543;BME280;64129;53.508;10.476;2023-11-19T01:02:55;100425.78;;;4.59;91.11
75543;BME280;64129;53.508;10.476;2023-11-19T01:05:32;100420.72;;;4.70;90.43
75543;BME280;64129;53.508;10.476;2023-11-19T01:08:00;100408.50;;;4.65;90.88
75543;BME280;64129;53.508;10.476;2023-11-19T01:10:30;100418.03;;;4.63;90.86
75543;BME280;64129;53.508;10.476;2023-11-19T01:13:07;100410.19;;;4.61;91.66
75543;BME280;64129;53.508;10.476;2023-11-19T01:15:38;100399.78;;;4.58;90.52
75543;BME280;64129;53.508;10.476;2023-11-19T01:18:14;100392.91;;;4.65;91.02
75543;BME280;64129;53.508;10.476;2023-11-19T01:20:48;100390.38;;;4.71;90.36
75543;BME280;64129;53.508;10.476;2023-11-19T01:23:21;100385.91;;;4.59;90.41
75543;BME280;64129;53.508;10.476;2023-11-19T01:25:56;100378.16;;;4.62;90.50
75543;BME280;64129;53.508;10.476;2023-11-19T01:28:23;100356.47;;;4.61;90.56
75543;BME280;64129;53.508;10.476;2023-11-19T01:31:05;100359.19;;;4.68;90.27
75543;BME280;64129;53.508;10.476;2023-11-19T01:33:39;100353.06;;;4.64;90.60
75543;BME280;64129;53.508;10.476;2023-11-19T01:36:31;100325.25;;;4.57;91.42
75543;BME280;64129;53.508;10.476;2023-11-19T01:39:10;100316.53;;;4.53;91.62
75543;BME280;64129;53.508;10.476;2023-11-19T01:41:39;100305.44;;;4.67;90.39
75543;BME280;64129;53.508;10.476;2023-11-19T01:44:25;100293.31;;;4.69;90.44
75543;BME280;64129;53.508;10.476;2023-11-19T01:46:57;100293.09;;;4.50;91.81
75543;BME280;64129;53.508;10.476;2023-11-19T01:49:38;100280.28;;;4.66;91.35
75543;BME280;64129;53.508;10.476;2023-11-19T01:52:12;100293.38;;;4.75;90.17
75543;BME280;64129;53.508;10.476;2023-11-19T01:54:42;100293.16;;;4.53;92.00
75543;BME280;64129;53.508;10.476;2023-11-19T01:57:18;100290.72;;;4.70;89.77
75543;BME280;64129;53.508;10.476;2023-11-19T01:59:54;100268.19;;;4.69;90.28
75543;BME280;64129;53.508;10.476;2023-11-19T02:02:34;100258.63;;;4.64;90.65
75543;BME280;64129;53.508;10.476;2023-11-19T02:05:16;100250.78;;;4.60;91.75
75543;BME280;64129;53.508;10.476;2023-11-19T02:08:03;100260.41;;;4.68;91.51
75543;BME280;64129;53.508;10.476;2023-11-19T02:10:30;100255.19;;;4.68;91.18
75543;BME280;64129;53.508;10.476;2023-11-19T02:13:12;100259.59;;;4.72;90.83
75543;BME280;64129;53.508;10.476;2023-11-19T02:15:59;100254.44;;;4.76;90.07
75543;BME280;64129;53.508;10.476;2023-11-19T02:18:38;100246.59;;;4.72;91.49
75543;BME280;64129;53.508;10.476;2023-11-19T02:21:07;100244.88;;;4.75;90.21
75543;BME280;64129;53.508;10.476;2023-11-19T02:23:39;100252.69;;;4.77;90.73
75543;BME280;64129;53.508;10.476;2023-11-19T02:28:54;100241.56;;;4.90;90.78
75543;BME280;64129;53.508;10.476;2023-11-19T02:31:35;100221.66;;;4.92;88.57
75543;BME280;64129;53.508;10.476;2023-11-19T02:34:13;100216.31;;;4.78;89.95
75543;BME280;64129;53.508;10.476;2023-11-19T02:36:43;100201.66;;;4.86;90.92
75543;BME280;64129;53.508;10.476;2023-11-19T02:39:19;100185.97;;;4.79;90.73
75543;BME280;64129;53.508;10.476;2023-11-19T02:42:04;100185.97;;;4.79;91.56
75543;BME280;64129;53.508;10.476;2023-11-19T02:44:45;100181.66;;;4.78;91.61
75543;BME280;64129;53.508;10.476;2023-11-19T02:47:12;100172.97;;;4.79;90.84
75543;BME280;64129;53.508;10.476;2023-11-19T02:49:42;100162.56;;;4.76;91.32
75543;BME280;64129;53.508;10.476;2023-11-19T02:52:17;100148.75;;;4.83;91.08
75543;BME280;64129;53.508;10.476;2023-11-19T02:54:48;100146.19;;;4.89;89.83
75543;BME280;64129;53.508;10.476;2023-11-19T02:57:19;100134.06;;;4.85;90.72
75543;BME280;64129;53.508;10.476;2023-11-19T02:59:52;100129.69;;;4.84;91.23
75543;BME280;64129;53.508;10.476;2023-11-19T03:02:29;100117.59;;;4.86;90.27
75543;BME280;64129;53.508;10.476;2023-11-19T03:05:09;100110.53;;;4.74;92.71
75543;BME280;64129;53.508;10.476;2023-11-19T03:07:47;100102.03;;;4.94;89.69
75543;BME280;64129;53.508;10.476;2023-11-19T03:10:24;100096.84;;;4.94;89.24
75543;BME280;64129;53.508;10.476;2023-11-19T03:12:53;100095.09;;;4.90;90.96
75543;BME280;64129;53.508;10.476;2023-11-19T03:15:22;100103.72;;;4.89;90.97
75543;BME280;64129;53.508;10.476;2023-11-19T03:17:52;100088.16;;;4.92;90.08
75543;BME280;64129;53.508;10.476;2023-11-19T03:20:29;100065.59;;;4.88;91.72
75543;BME280;64129;53.508;10.476;2023-11-19T03:23:07;100077.69;;;4.84;92.46
75543;BME280;64129;53.508;10.476;2023-11-19T03:25:34;100091.59;;;4.88;91.20
75543;BME280;64129;53.508;10.476;2023-11-19T03:28:12;100089.91;;;4.93;91.31
75543;BME280;64129;53.508;10.476;2023-11-19T03:30:49;100076.97;;;5.02;90.45
75543;BME280;64129;53.508;10.476;2023-11-19T03:33:20;100068.22;;;4.92;91.99
75543;BME280;64129;53.508;10.476;2023-11-19T03:36:00;100051.84;;;5.04;90.93
75543;BME280;64129;53.508;10.476;2023-11-19T03:38:43;100050.06;;;4.98;92.30
75543;BME280;64129;53.508;10.476;2023-11-19T03:41:18;100049.34;;;5.18;90.31
75543;BME280;64129;53.508;10.476;2023-11-19T03:43:53;100046.63;;;5.02;92.22
75543;BME280;64129;53.508;10.476;2023-11-19T03:46:21;100031.03;;;5.07;90.99
75543;BME280;64129;53.508;10.476;2023-11-19T03:48:53;100018.94;;;5.10;92.21
75543;BME280;64129;53.508;10.476;2023-11-19T03:51:23;100031.09;;;5.13;91.06
75543;BME280;64129;53.508;10.476;2023-11-19T03:53:51;100026.75;;;5.14;92.18
75543;BME280;64129;53.508;10.476;2023-11-19T03:56:18;100016.34;;;5.14;92.27
75543;BME280;64129;53.508;10.476;2023-11-19T03:58:57;100006.84;;;5.20;90.91
75543;BME280;64129;53.508;10.476;2023-11-19T04:01:24;100016.41;;;5.23;91.42
75543;BME280;64129;53.508;10.476;2023-11-19T04:03:51;100013.78;;;5.18;91.92
75543;BME280;64129;53.508;10.476;2023-11-19T04:06:26;100014.63;;;5.22;92.50
75543;BME280;64129;53.508;10.476;2023-11-19T04:09:05;100012.97;;;5.28;91.38
75543;BME280;64129;53.508;10.476;2023-11-19T04:11:36;100001.69;;;5.34;91.47
75543;BME280;64129;53.508;10.476;2023-11-19T04:14:13;100010.34;;;5.25;91.69
75543;BME280;64129;53.508;10.476;2023-11-19T04:16:46;100000.00;;;5.37;91.59
75543;BME280;64129;53.508;10.476;2023-11-19T04:19:19;99990.44;;;5.35;91.57
75543;BME280;64129;53.508;10.476;2023-11-19T04:21:53;99997.38;;;5.37;91.38
75543;BME280;64129;53.508;10.476;2023-11-19T04:24:30;99987.84;;;5.38;91.21
75543;BME280;64129;53.508;10.476;2023-11-19T04:27:04;99986.16;;;5.46;90.61
75543;BME280;64129;53.508;10.476;2023-11-19T04:29:54;99975.72;;;5.45;91.75
75543;BME280;64129;53.508;10.476;2023-11-19T04:32:26;99980.06;;;5.47;90.58
75543;BME280;64129;53.508;10.476;2023-11-19T04:34:54;99968.78;;;5.44;91.38
75543;BME280;64129;53.508;10.476;2023-11-19T04:37:21;99960.13;;;5.48;91.97
75543;BME280;64129;53.508;10.476;2023-11-19T04:39:48;99966.22;;;5.51;92.01
75543;BME280;64129;53.508;10.476;2023-11-19T04:42:31;99972.31;;;5.55;91.70
75543;BME280;64129;53.508;10.476;2023-11-19T04:45:04;99954.91;;;5.54;91.41
75543;BME280;64129;53.508;10.476;2023-11-19T04:47:36;99948.88;;;5.56;91.28
75543;BME280;64129;53.508;10.476;2023-11-19T04:50:05;99952.34;;;5.51;91.55
75543;BME280;64129;53.508;10.476;2023-11-19T04:52:43;99940.19;;;5.57;91.72
75543;BME280;64129;53.508;10.476;2023-11-19T04:55:31;99952.34;;;5.57;92.23
75543;BME280;64129;53.508;10.476;2023-11-19T04:58:04;99947.13;;;5.61;90.24
75543;BME280;64129;53.508;10.476;2023-11-19T05:00:48;99941.91;;;5.58;91.87
75543;BME280;64129;53.508;10.476;2023-11-19T05:03:24;99935.88;;;5.61;92.53
75543;BME280;64129;53.508;10.476;2023-11-19T05:06:11;99936.75;;;5.71;91.31
75543;BME280;64129;53.508;10.476;2023-11-19T05:08:55;99930.66;;;5.67;92.51
75543;BME280;64129;53.508;10.476;2023-11-19T05:11:22;99937.56;;;5.59;93.18
75543;BME280;64129;53.508;10.476;2023-11-19T05:13:56;99926.31;;;5.68;93.83
75543;BME280;64129;53.508;10.476;2023-11-19T05:16:39;99921.97;;;5.73;93.39
75543;BME280;64129;53.508;10.476;2023-11-19T05:19:10;99922.84;;;5.64;93.51
75543;BME280;64129;53.508;10.476;2023-11-19T05:21:42;99908.97;;;5.76;92.89
75543;BME280;64129;53.508;10.476;2023-11-19T05:24:20;99913.31;;;5.77;92.84
75543;BME280;64129;53.508;10.476;2023-11-19T05:27:08;99909.88;;;5.79;92.03
75543;BME280;64129;53.508;10.476;2023-11-19T05:29:38;99894.25;;;5.84;92.84
75543;BME280;64129;53.508;10.476;2023-11-19T05:32:13;99900.31;;;5.83;94.31
75543;BME280;64129;53.508;10.476;2023-11-19T05:34:52;99910.72;;;5.86;94.39
75543;BME280;64129;53.508;10.476;2023-11-19T05:37:27;99904.69;;;6.04;92.08
75543;BME280;64129;53.508;10.476;2023-11-19T05:40:15;99896.88;;;6.02;92.53
75543;BME280;64129;53.508;10.476;2023-11-19T05:42:52;99891.69;;;6.07;94.23
75543;BME280;64129;53.508;10.476;2023-11-19T05:45:21;99889.03;;;6.10;93.69
75543;BME280;64129;53.508;10.476;2023-11-19T05:48:11;99890.81;;;6.20;93.53
75543;BME280;64129;53.508;10.476;2023-11-19T05:50:38;99890.75;;;6.25;93.98
75543;BME280;64129;53.508;10.476;2023-11-19T05:53:09;99882.94;;;6.34;93.55
75543;BME280;64129;53.508;10.476;2023-11-19T05:55:50;99885.56;;;6.28;93.83
75543;BME280;64129;53.508;10.476;2023-11-19T05:58:39;99889.03;;;6.41;93.55
75543;BME280;64129;53.508;10.476;2023-11-19T06:01:29;99886.41;;;6.42;92.94
75543;BME280;64129;53.508;10.476;2023-11-19T06:03:59;99882.03;;;6.55;92.08
75543;BME280;64129;53.508;10.476;2023-11-19T06:06:30;99886.38;;;6.59;92.06
75543;BME280;64129;53.508;10.476;2023-11-19T06:09:06;99882.91;;;6.55;91.02
75543;BME280;64129;53.508;10.476;2023-11-19T06:11:44;99883.78;;;6.54;92.90
75543;BME280;64129;53.508;10.476;2023-11-19T06:14:16;99887.22;;;6.64;90.91
75543;BME280;64129;53.508;10.476;2023-11-19T06:16:49;99888.91;;;6.79;93.40
75543;BME280;64129;53.508;10.476;2023-11-19T06:19:29;99885.47;;;6.72;91.83
75543;BME280;64129;53.508;10.476;2023-11-19T06:21:59;99883.69;;;6.76;92.10
75543;BME280;64129;53.508;10.476;2023-11-19T06:24:26;99884.53;;;6.84;94.84
75543;BME280;64129;53.508;10.476;2023-11-19T06:27:15;99887.13;;;6.92;90.75
75543;BME280;64129;53.508;10.476;2023-11-19T06:29:42;99882.78;;;6.89;91.57
75543;BME280;64129;53.508;10.476;2023-11-19T06:32:19;99880.13;;;7.03;93.61
75543;BME280;64129;53.508;10.476;2023-11-19T06:34:52;99880.13;;;7.04;93.25
75543;BME280;64129;53.508;10.476;2023-11-19T06:37:33;99879.19;;;7.19;94.14
75543;BME280;64129;53.508;10.476;2023-11-19T06:40:04;99884.38;;;7.24;93.88
75543;BME280;64129;53.508;10.476;2023-11-19T06:42:38;99879.19;;;7.18;92.21
75543;BME280;64129;53.508;10.476;2023-11-19T06:45:09;99889.56;;;7.27;93.09
75543;BME280;64129;53.508;10.476;2023-11-19T06:47:46;99885.13;;;7.44;94.73
75543;BME280;64129;53.508;10.476;2023-11-19T06:50:19;99890.34;;;7.44;94.01
75543;BME280;64129;53.508;10.476;2023-11-19T06:52:47;99895.53;;;7.53;94.44
75543;BME280;64129;53.508;10.476;2023-11-19T06:55:32;99881.56;;;7.57;92.97
75543;BME280;64129;53.508;10.476;2023-11-19T06:58:02;99882.22;;;7.88;95.69
75543;BME280;64129;53.508;10.476;2023-11-19T07:00:33;99883.16;;;7.80;94.66
75543;BME280;64129;53.508;10.476;2023-11-19T07:03:10;99880.47;;;7.87;94.82
75543;BME280;64129;53.508;10.476;2023-11-19T07:05:44;99871.56;;;8.11;95.53
75543;BME280;64129;53.508;10.476;2023-11-19T07:08:15;99877.81;;;7.92;94.38
75543;BME280;64129;53.508;10.476;2023-11-19T07:10:56;99878.63;;;7.97;93.53
75543;BME280;64129;53.508;10.476;2023-11-19T07:13:28;99872.34;;;8.23;94.88
75543;BME280;64129;53.508;10.476;2023-11-19T07:16:01;99874.00;;;8.30;94.64
75543;BME280;64129;53.508;10.476;2023-11-19T07:18:32;99878.25;;;8.43;95.31
75543;BME280;64129;53.508;10.476;2023-11-19T07:21:01;99882.56;;;8.47;94.97
75543;BME280;64129;53.508;10.476;2023-11-19T07:24:03;99873.81;;;8.54;95.25
75543;BME280;64129;53.508;10.476;2023-11-19T07:26:51;99869.28;;;8.67;94.66
75543;BME280;64129;53.508;10.476;2023-11-19T07:29:27;99875.34;;;8.72;95.02
75543;BME280;64129;53.508;10.476;2023-11-19T07:32:12;99876.03;;;8.88;94.92
75543;BME280;64129;53.508;10.476;2023-11-19T07:34:40;99881.31;;;8.83;93.69
75543;BME280;64129;53.508;10.476;2023-11-19T07:37:23;99875.09;;;8.92;93.75
75543;BME280;64129;53.508;10.476;2023-11-19T07:40:01;99871.56;;;8.94;94.22
75543;BME280;64129;53.508;10.476;2023-11-19T07:42:28;99872.06;;;9.23;94.19
75543;BME280;64129;53.508;10.476;2023-11-19T07:44:59;99871.88;;;9.38;94.16
75543;BME280;64129;53.508;10.476;2023-11-19T07:47:38;99882.31;;;9.41;93.38
75543;BME280;64129;53.508;10.476;2023-11-19T07:50:09;99885.81;;;9.40;91.86
75543;BME280;64129;53.508;10.476;2023-11-19T07:52:53;99877.00;;;9.47;93.45
75543;BME280;64129;53.508;10.476;2023-11-19T07:55:31;99895.28;;;9.52;93.05
75543;BME280;64129;53.508;10.476;2023-11-19T07:58:08;99887.38;;;9.53;92.20
75543;BME280;64129;53.508;10.476;2023-11-19T08:00:41;99891.03;;;9.43;92.48
75543;BME280;64129;53.508;10.476;2023-11-19T08:03:14;99890.69;;;9.66;94.36
75543;BME280;64129;53.508;10.476;2023-11-19T08:05:43;99883.72;;;9.63;93.76
75543;BME280;64129;53.508;10.476;2023-11-19T08:08:17;99897.59;;;9.71;93.33
75543;BME280;64129;53.508;10.476;2023-11-19T08:10:46;99891.56;;;9.65;92.97
75543;BME280;64129;53.508;10.476;2023-11-19T08:13:19;99898.44;;;9.72;93.34
75543;BME280;64129;53.508;10.476;2023-11-19T08:15:47;99899.97;;;9.87;93.21
75543;BME280;64129;53.508;10.476;2023-11-19T08:18:23;99897.56;;;9.75;92.78
75543;BME280;64129;53.508;10.476;2023-11-19T08:20:52;99898.94;;;9.97;92.84
75543;BME280;64129;53.508;10.476;2023-11-19T08:23:41;99898.78;;;10.06;93.67
75543;BME280;64129;53.508;10.476;2023-11-19T08:26:08;99900.56;;;10.04;93.46
75543;BME280;64129;53.508;10.476;2023-11-19T08:28:46;99904.97;;;10.02;92.53
75543;BME280;64129;53.508;10.476;2023-11-19T08:31:14;99906.72;;;10.02;94.10
75543;BME280;64129;53.508;10.476;2023-11-19T08:33:42;99914.50;;;10.06;91.79
75543;BME280;64129;53.508;10.476;2023-11-19T08:36:18;99909.16;;;10.14;92.51
75543;BME280;64129;53.508;10.476;2023-11-19T08:38:47;99913.56;;;10.10;93.14
75543;BME280;64129;53.508;10.476;2023-11-19T08:41:18;99919.59;;;10.15;93.17
75543;BME280;64129;53.508;10.476;2023-11-19T08:43:48;99912.59;;;10.16;92.73
75543;BME280;64129;53.508;10.476;2023-11-19T08:46:47;99915.38;;;10.07;91.96
75543;BME280;64129;53.508;10.476;2023-11-19T08:49:22;99924.91;;;10.12;92.31
75543;BME280;64129;53.508;10.476;2023-11-19T08:51:52;99910.03;;;10.13;92.76
75543;BME280;64129;53.508;10.476;2023-11-19T08:54:19;99918.69;;;10.18;92.78
75543;BME280;64129;53.508;10.476;2023-11-19T08:56:51;99916.91;;;10.20;92.87
75543;BME280;64129;53.508;10.476;2023-11-19T08:59:18;99918.63;;;10.21;92.26
75543;BME280;64129;53.508;10.476;2023-11-19T09:01:48;99920.34;;;10.27;92.38
75543;BME280;64129;53.508;10.476;2023-11-19T09:04:17;99918.63;;;10.24;92.34
75543;BME280;64129;53.508;10.476;2023-11-19T09:06:44;99919.28;;;10.37;91.63
75543;BME280;64129;53.508;10.476;2023-11-19T09:09:22;99926.38;;;10.32;91.14
75543;BME280;64129;53.508;10.476;2023-11-19T09:11:49;99922.97;;;10.27;91.31
75543;BME280;64129;53.508;10.476;2023-11-19T09:14:16;99926.38;;;10.32;91.36
75543;BME280;64129;53.508;10.476;2023-11-19T09:16:45;99935.00;;;10.38;91.84
75543;BME280;64129;53.508;10.476;2023-11-19T09:19:11;99926.09;;;10.47;90.92
75543;BME280;64129;53.508;10.476;2023-11-19T09:21:40;99935.66;;;10.51;90.30
75543;BME280;64129;53.508;10.476;2023-11-19T09:24:10;99934.75;;;10.52;90.32
75543;BME280;64129;53.508;10.476;2023-11-19T09:26:42;99930.81;;;10.76;89.80
75543;BME280;64129;53.508;10.476;2023-11-19T09:29:14;99940.66;;;10.65;89.45
75543;BME280;64129;53.508;10.476;2023-11-19T09:31:53;99938.81;;;10.70;89.65
75543;BME280;64129;53.508;10.476;2023-11-19T09:34:22;99931.06;;;10.64;89.34
75543;BME280;64129;53.508;10.476;2023-11-19T09:36:49;99932.53;;;10.79;88.70
75543;BME280;64129;53.508;10.476;2023-11-19T09:39:15;99931.00;;;11.12;87.77
75543;BME280;64129;53.508;10.476;2023-11-19T09:41:58;99930.47;;;11.36;86.79
75543;BME280;64129;53.508;10.476;2023-11-19T09:44:29;99919.69;;;11.50;87.02
75543;BME280;64129;53.508;10.476;2023-11-19T09:46:58;99921.28;;;11.57;86.35
75543;BME280;64129;53.508;10.476;2023-11-19T09:49:28;99941.41;;;11.16;87.46
75543;BME280;64129;53.508;10.476;2023-11-19T09:52:05;99932.69;;;11.14;87.97
75543;BME280;64129;53.508;10.476;2023-11-19T09:54:37;99938.94;;;11.50;86.23
75543;BME280;64129;53.508;10.476;2023-11-19T09:57:06;99939.34;;;11.31;87.08
75543;BME280;64129;53.508;10.476;2023-11-19T09:59:37;99937.06;;;11.57;86.14
75543;BME280;64129;53.508;10.476;2023-11-19T10:02:23;99942.16;;;11.63;85.31
75543;BME280;64129;53.508;10.476;2023-11-19T10:04:58;99931.91;;;11.53;86.03
75543;BME280;64129;53.508;10.476;2023-11-19T10:07:28;99937.50;;;11.76;85.09
75543;BME280;64129;53.508;10.476;2023-11-19T10:09:55;99937.56;;;12.12;83.10
75543;BME280;64129;53.508;10.476;2023-11-19T10:12:31;99927.25;;;12.38;82.79
75543;BME280;64129;53.508;10.476;2023-11-19T10:14:59;99924.97;;;12.24;81.67
75543;BME280;64129;53.508;10.476;2023-11-19T10:17:35;99931.94;;;12.27;82.31
75543;BME280;64129;53.508;10.476;2023-11-19T10:20:02;99920.72;;;12.55;83.30
75543;BME280;64129;53.508;10.476;2023-11-19T10:22:39;99926.22;;;12.78;81.21
75543;BME280;64129;53.508;10.476;2023-11-19T10:25:26;99922.25;;;12.62;80.79
75543;BME280;64129;53.508;10.476;2023-11-19T10:27:55;99918.63;;;12.33;82.73
75543;BME280;64129;53.508;10.476;2023-11-19T10:30:31;99920.25;;;12.71;82.13
75543;BME280;64129;53.508;10.476;2023-11-19T10:33:19;99924.34;;;12.83;78.35
75543;BME280;64129;53.508;10.476;2023-11-19T10:35:57;99929.06;;;12.70;78.88
75543;BME280;64129;53.508;10.476;2023-11-19T10:38:36;99925.72;;;12.64;77.30
75543;BME280;64129;53.508;10.476;2023-11-19T10:41:04;99929.66;;;13.44;77.86
75543;BME280;64129;53.508;10.476;2023-11-19T10:43:45;99922.09;;;12.68;79.98
75543;BME280;64129;53.508;10.476;2023-11-19T10:46:21;99931.94;;;12.61;82.04
75543;BME280;64129;53.508;10.476;2023-11-19T10:48:59;99938.84;;;12.31;81.24
75543;BME280;64129;53.508;10.476;2023-11-19T10:51:34;99931.63;;;12.04;82.77
75543;BME280;64129;53.508;10.476;2023-11-19T10:54:05;99942.91;;;12.09;84.39
75543;BME280;64129;53.508;10.476;2023-11-19T10:56:39;99943.94;;;12.02;82.22
75543;BME280;64129;53.508;10.476;2023-11-19T10:59:08;99946.31;;;11.73;82.87
75543;BME280;64129;53.508;10.476;2023-11-19T11:01:48;99949.34;;;11.95;82.94
75543;BME280;64129;53.508;10.476;2023-11-19T11:04:33;99946.22;;;11.78;84.89
75543;BME280;64129;53.508;10.476;2023-11-19T11:07:23;99954.25;;;11.72;83.13
75543;BME280;64129;53.508;10.476;2023-11-19T11:09:55;99957.50;;;11.85;84.49
75543;BME280;64129;53.508;10.476;2023-11-19T11:12:37;99957.97;;;11.62;85.60
75543;BME280;64129;53.508;10.476;2023-11-19T11:15:20;99956.78;;;11.77;85.47
75543;BME280;64129;53.508;10.476;2023-11-19T11:17:54;99948.53;;;11.53;86.44
75543;BME280;64129;53.508;10.476;2023-11-19T11:20:34;99959.84;;;11.57;84.96
75543;BME280;64129;53.508;10.476;2023-11-19T11:29:01;99958.13;;;11.54;85.39
75543;BME280;64129;53.508;10.476;2023-11-19T11:39:50;99960.63;;;11.18;85.65
75543;BME280;64129;53.508;10.476;2023-11-19T11:45:17;99973.19;;;11.03;86.10
75543;BME280;64129;53.508;10.476;2023-11-19T11:48:17;99968.72;;;11.08;86.46
75543;BME280;64129;53.508;10.476;2023-11-19T11:51:01;99978.13;;;11.18;87.07
75543;BME280;64129;53.508;10.476;2023-11-19T11:53:35;99976.31;;;10.75;87.61
75543;BME280;64129;53.508;10.476;2023-11-19T11:56:32;99971.69;;;10.89;87.58
75543;BME280;64129;53.508;10.476;2023-11-19T11:59:20;99966.47;;;10.86;87.37
75543;BME280;64129;53.508;10.476;2023-11-19T12:01:59;99964.59;;;10.96;87.31
75543;BME280;64129;53.508;10.476;2023-11-19T12:04:37;99983.53;;;11.12;87.05
75543;BME280;64129;53.508;10.476;2023-11-19T12:07:24;99970.63;;;10.99;86.76
75543;BME280;64129;53.508;10.476;2023-11-19T12:10:26;99969.84;;;10.96;87.46
75543;BME280;64129;53.508;10.476;2023-11-19T12:13:01;99971.19;;;11.15;86.76
75543;BME280;64129;53.508;10.476;2023-11-19T12:15:29;99971.13;;;11.18;87.35
75543;BME280;64129;53.508;10.476;2023-11-19T12:34:29;99955.50;;;11.54;84.64
75543;BME280;64129;53.508;10.476;2023-11-19T12:36:55;99949.63;;;11.41;85.31
75543;BME280;64129;53.508;10.476;2023-11-19T12:39:22;99950.44;;;11.45;84.34
75543;BME280;64129;53.508;10.476;2023-11-19T12:41:50;99959.16;;;11.47;84.64
75543;BME280;64129;53.508;10.476;2023-11-19T12:44:17;99949.25;;;11.60;83.98
75543;BME280;64129;53.508;10.476;2023-11-19T12:46:44;99956.72;;;11.78;84.64
75543;BME280;64129;53.508;10.476;2023-11-19T12:49:11;99953.03;;;11.46;84.35
75543;BME280;64129;53.508;10.476;2023-11-19T12:51:37;99960.22;;;11.38;85.07
75543;BME280;64129;53.508;10.476;2023-11-19T12:54:04;99958.38;;;11.43;85.15
75543;BME280;64129;53.508;10.476;2023-11-19T12:56:31;99956.69;;;11.39;84.79
75543;BME280;64129;53.508;10.476;2023-11-19T12:59:10;99947.19;;;11.34;86.03
75543;BME280;64129;53.508;10.476;2023-11-19T13:01:38;99959.75;;;11.19;85.76
75543;BME280;64129;53.508;10.476;2023-11-19T13:04:18;99957.03;;;11.24;86.10
75543;BME280;64129;53.508;10.476;2023-11-19T13:06:45;99957.13;;;11.19;86.17
75543;BME280;64129;53.508;10.476;2023-11-19T13:09:29;99953.13;;;11.43;85.88
75543;BME280;64129;53.508;10.476;2023-11-19T13:11:56;99948.97;;;11.32;86.20
75543;BME280;64129;53.508;10.476;2023-11-19T13:14:23;99956.22;;;11.20;86.66
75543;BME280;64129;53.508;10.476;2023-11-19T13:16:50;99944.06;;;11.15;86.23
75543;BME280;64129;53.508;10.476;2023-11-19T13:19:16;99951.97;;;11.13;85.38
75543;BME280;64129;53.508;10.476;2023-11-19T13:21:45;99950.97;;;11.20;85.66
75543;BME280;64129;53.508;10.476;2023-11-19T13:24:15;99954.84;;;11.44;85.06
75543;BME280;64129;53.508;10.476;2023-11-19T13:26:42;99948.22;;;11.67;84.92
75543;BME280;64129;53.508;10.476;2023-11-19T13:29:08;99946.69;;;11.57;84.72
75543;BME280;64129;53.508;10.476;2023-11-19T13:31:37;99943.09;;;11.61;85.53
75543;BME280;64129;53.508;10.476;2023-11-19T13:34:03;99946.81;;;11.52;85.37
75543;BME280;64129;53.508;10.476;2023-11-19T13:36:30;99952.34;;;11.38;85.36
75543;BME280;64129;53.508;10.476;2023-11-19T13:38:57;99949.97;;;11.26;84.93
75543;BME280;64129;53.508;10.476;2023-11-19T13:41:25;99941.25;;;11.24;84.94
75543;BME280;64129;53.508;10.476;2023-11-19T13:43:53;99942.88;;;11.30;85.73
75543;BME280;64129;53.508;10.476;2023-11-19T13:46:20;99937.84;;;11.19;85.04
75543;BME280;64129;53.508;10.476;2023-11-19T13:48:46;99946.56;;;11.21;85.61
75543;BME280;64129;53.508;10.476;2023-11-19T13:51:15;99941.34;;;11.19;84.88
75543;BME280;64129;53.508;10.476;2023-11-19T13:53:41;99947.66;;;11.11;85.38
75543;BME280;64129;53.508;10.476;2023-11-19T13:56:12;99951.19;;;11.08;85.25
75543;BME280;64129;53.508;10.476;2023-11-19T13:58:38;99946.78;;;11.10;84.81
75543;BME280;64129;53.508;10.476;2023-11-19T14:01:06;99944.09;;;11.13;84.89
75543;BME280;64129;53.508;10.476;2023-11-19T14:03:33;99945.75;;;11.17;85.78
75543;BME280;64129;53.508;10.476;2023-11-19T14:06:00;99938.88;;;11.12;84.81